sensor_id;sensor_type;location;lat;lon;timestamp;temperature;humidity
74923;HTU21D;64715;44.760;37.678;2022-12-18T00:00:04;11.42;85.01
74923;HTU21D;64715;44.760;37.678;2022-12-18T00:01:20;11.43;85.45
74923;HTU21D;64715;44.760;37.678;2022-12-18T00:02:21;11.44;85.13
74923;HTU21D;64715;44.760;37.678;2022-12-18T00:03:22;11.46;85.44
74923;HTU21D;64715;44.760;37.678;2022-12-18T00:04:25;11.48;85.55
74923;HTU21D;64715;44.760;37.678;2022-12-18T00:05:26;11.51;85.35
74923;HTU21D;64715;44.760;37.678;2022-12-18T00:06:28;11.54;85.31
74923;HTU21D;64715;44.760;37.678;2022-12-18T00:07:29;11.56;85.25
74923;HTU21D;64715;44.760;37.678;2022-12-18T00:08:31;11.58;85.17
74923;HTU21D;64715;44.760;37.678;2022-12-18T00:09:33;11.61;85.27
74923;HTU21D;64715;44.760;37.678;2022-12-18T00:10:35;11.62;84.86
74923;HTU21D;64715;44.760;37.678;2022-12-18T00:11:36;11.67;84.96
74923;HTU21D;64715;44.760;37.678;2022-12-18T00:12:37;11.68;85.10
74923;HTU21D;64715;44.760;37.678;2022-12-18T00:13:39;11.70;84.82
74923;HTU21D;64715;44.760;37.678;2022-12-18T00:14:39;11.71;84.64
74923;HTU21D;64715;44.760;37.678;2022-12-18T00:15:41;11.72;84.66
74923;HTU21D;64715;44.760;37.678;2022-12-18T00:16:46;11.72;84.50
74923;HTU21D;64715;44.760;37.678;2022-12-18T00:17:47;11.73;84.55
74923;HTU21D;64715;44.760;37.678;2022-12-18T00:18:49;11.74;84.39
74923;HTU21D;64715;44.760;37.678;2022-12-18T00:19:50;11.73;84.52
74923;HTU21D;64715;44.760;37.678;2022-12-18T00:20:51;11.74;84.32
74923;HTU21D;64715;44.760;37.678;2022-12-18T00:21:53;11.76;84.48
74923;HTU21D;64715;44.760;37.678;2022-12-18T00:22:54;11.78;84.21
74923;HTU21D;64715;44.760;37.678;2022-12-18T00:23:56;11.81;84.18
74923;HTU21D;64715;44.760;37.678;2022-12-18T00:24:57;11.81;84.42
74923;HTU21D;64715;44.760;37.678;2022-12-18T00:26:13;11.81;84.13
74923;HTU21D;64715;44.760;37.678;2022-12-18T00:27:14;11.82;84.19
74923;HTU21D;64715;44.760;37.678;2022-12-18T00:28:15;11.79;84.11
74923;HTU21D;64715;44.760;37.678;2022-12-18T00:29:16;11.79;83.86
74923;HTU21D;64715;44.760;37.678;2022-12-18T00:30:17;11.78;83.55
74923;HTU21D;64715;44.760;37.678;2022-12-18T00:31:21;11.78;83.69
74923;HTU21D;64715;44.760;37.678;2022-12-18T00:32:23;11.75;83.49
74923;HTU21D;64715;44.760;37.678;2022-12-18T00:33:24;11.73;83.46
74923;HTU21D;64715;44.760;37.678;2022-12-18T00:34:25;11.70;83.40
74923;HTU21D;64715;44.760;37.678;2022-12-18T00:35:26;11.69;83.58
74923;HTU21D;64715;44.760;37.678;2022-12-18T00:36:30;11.67;83.24
74923;HTU21D;64715;44.760;37.678;2022-12-18T00:37:33;11.67;83.55
74923;HTU21D;64715;44.760;37.678;2022-12-18T00:38:35;11.61;83.24
74923;HTU21D;64715;44.760;37.678;2022-12-18T00:39:37;11.59;83.49
74923;HTU21D;64715;44.760;37.678;2022-12-18T00:40:39;11.58;83.34
74923;HTU21D;64715;44.760;37.678;2022-12-18T00:41:40;11.58;83.47
74923;HTU21D;64715;44.760;37.678;2022-12-18T00:43:00;11.55;83.34
74923;HTU21D;64715;44.760;37.678;2022-12-18T00:44:02;11.55;82.95
74923;HTU21D;64715;44.760;37.678;2022-12-18T00:45:04;11.53;83.10
74923;HTU21D;64715;44.760;37.678;2022-12-18T00:46:06;11.49;83.51
74923;HTU21D;64715;44.760;37.678;2022-12-18T00:47:07;11.48;83.35
74923;HTU21D;64715;44.760;37.678;2022-12-18T00:48:07;11.47;83.13
74923;HTU21D;64715;44.760;37.678;2022-12-18T00:49:09;11.48;83.26
74923;HTU21D;64715;44.760;37.678;2022-12-18T00:50:11;11.46;83.73
74923;HTU21D;64715;44.760;37.678;2022-12-18T00:51:11;11.46;83.18
74923;HTU21D;64715;44.760;37.678;2022-12-18T00:52:12;11.45;83.43
74923;HTU21D;64715;44.760;37.678;2022-12-18T00:53:14;11.45;83.52
74923;HTU21D;64715;44.760;37.678;2022-12-18T00:54:16;11.46;83.39
74923;HTU21D;64715;44.760;37.678;2022-12-18T00:55:18;11.46;83.66
74923;HTU21D;64715;44.760;37.678;2022-12-18T00:56:21;11.47;83.48
74923;HTU21D;64715;44.760;37.678;2022-12-18T00:57:22;11.47;83.51
74923;HTU21D;64715;44.760;37.678;2022-12-18T00:58:23;11.48;83.55
74923;HTU21D;64715;44.760;37.678;2022-12-18T00:59:24;11.48;83.78
74923;HTU21D;64715;44.760;37.678;2022-12-18T01:00:25;11.51;83.42
74923;HTU21D;64715;44.760;37.678;2022-12-18T01:01:26;11.48;83.52
74923;HTU21D;64715;44.760;37.678;2022-12-18T01:02:27;11.49;83.45
74923;HTU21D;64715;44.760;37.678;2022-12-18T01:03:28;11.51;83.45
74923;HTU21D;64715;44.760;37.678;2022-12-18T01:04:31;11.49;83.39
74923;HTU21D;64715;44.760;37.678;2022-12-18T01:05:33;11.47;83.32
74923;HTU21D;64715;44.760;37.678;2022-12-18T01:06:34;11.46;83.31
74923;HTU21D;64715;44.760;37.678;2022-12-18T01:07:36;11.44;83.26
74923;HTU21D;64715;44.760;37.678;2022-12-18T01:08:38;11.41;83.32
74923;HTU21D;64715;44.760;37.678;2022-12-18T01:09:39;11.39;83.20
74923;HTU21D;64715;44.760;37.678;2022-12-18T01:10:40;11.38;83.39
74923;HTU21D;64715;44.760;37.678;2022-12-18T01:11:43;11.34;83.45
74923;HTU21D;64715;44.760;37.678;2022-12-18T01:12:45;11.33;83.17
74923;HTU21D;64715;44.760;37.678;2022-12-18T01:13:46;11.30;83.13
74923;HTU21D;64715;44.760;37.678;2022-12-18T01:14:47;11.27;83.29
74923;HTU21D;64715;44.760;37.678;2022-12-18T01:15:49;11.27;83.52
74923;HTU21D;64715;44.760;37.678;2022-12-18T01:16:51;11.25;83.58
74923;HTU21D;64715;44.760;37.678;2022-12-18T01:17:53;11.23;83.53
74923;HTU21D;64715;44.760;37.678;2022-12-18T01:18:54;11.20;83.78
74923;HTU21D;64715;44.760;37.678;2022-12-18T01:19:55;11.23;83.54
74923;HTU21D;64715;44.760;37.678;2022-12-18T01:20:57;11.22;83.87
74923;HTU21D;64715;44.760;37.678;2022-12-18T01:21:58;11.26;83.92
74923;HTU21D;64715;44.760;37.678;2022-12-18T01:22:59;11.23;83.51
74923;HTU21D;64715;44.760;37.678;2022-12-18T01:24:01;11.22;84.10
74923;HTU21D;64715;44.760;37.678;2022-12-18T01:25:03;11.19;83.97
74923;HTU21D;64715;44.760;37.678;2022-12-18T01:26:13;11.19;83.74
74923;HTU21D;64715;44.760;37.678;2022-12-18T01:27:15;11.16;84.00
74923;HTU21D;64715;44.760;37.678;2022-12-18T01:28:16;11.15;83.79
74923;HTU21D;64715;44.760;37.678;2022-12-18T01:29:17;11.14;83.65
74923;HTU21D;64715;44.760;37.678;2022-12-18T01:30:18;11.11;83.61
74923;HTU21D;64715;44.760;37.678;2022-12-18T01:31:26;11.10;83.65
74923;HTU21D;64715;44.760;37.678;2022-12-18T01:32:31;11.07;83.29
74923;HTU21D;64715;44.760;37.678;2022-12-18T01:33:32;11.04;83.59
74923;HTU21D;64715;44.760;37.678;2022-12-18T01:34:36;11.02;83.43
74923;HTU21D;64715;44.760;37.678;2022-12-18T01:35:42;10.97;83.54
74923;HTU21D;64715;44.760;37.678;2022-12-18T01:36:43;10.95;83.58
74923;HTU21D;64715;44.760;37.678;2022-12-18T01:37:44;10.93;83.31
74923;HTU21D;64715;44.760;37.678;2022-12-18T01:38:46;10.89;83.30
74923;HTU21D;64715;44.760;37.678;2022-12-18T01:39:47;10.87;83.71
74923;HTU21D;64715;44.760;37.678;2022-12-18T01:40:49;10.83;83.35
74923;HTU21D;64715;44.760;37.678;2022-12-18T01:41:49;10.81;83.24
74923;HTU21D;64715;44.760;37.678;2022-12-18T01:43:03;10.74;83.28
74923;HTU21D;64715;44.760;37.678;2022-12-18T01:45:43;10.66;83.53
74923;HTU21D;64715;44.760;37.678;2022-12-18T01:46:45;10.63;83.44
74923;HTU21D;64715;44.760;37.678;2022-12-18T01:47:49;10.60;83.46
74923;HTU21D;64715;44.760;37.678;2022-12-18T01:48:55;10.56;83.52
74923;HTU21D;64715;44.760;37.678;2022-12-18T01:50:03;10.55;83.36
74923;HTU21D;64715;44.760;37.678;2022-12-18T01:51:06;10.52;83.42
74923;HTU21D;64715;44.760;37.678;2022-12-18T01:52:08;10.49;83.65
74923;HTU21D;64715;44.760;37.678;2022-12-18T01:53:21;10.48;83.65
74923;HTU21D;64715;44.760;37.678;2022-12-18T01:54:23;10.43;83.90
74923;HTU21D;64715;44.760;37.678;2022-12-18T01:55:28;10.42;83.43
74923;HTU21D;64715;44.760;37.678;2022-12-18T01:56:29;10.41;83.66
74923;HTU21D;64715;44.760;37.678;2022-12-18T01:57:31;10.41;83.84
74923;HTU21D;64715;44.760;37.678;2022-12-18T02:00:14;10.39;84.26
74923;HTU21D;64715;44.760;37.678;2022-12-18T02:01:17;10.39;84.07
74923;HTU21D;64715;44.760;37.678;2022-12-18T02:02:19;10.39;84.07
74923;HTU21D;64715;44.760;37.678;2022-12-18T02:03:20;10.40;84.29
74923;HTU21D;64715;44.760;37.678;2022-12-18T02:04:23;10.38;84.12
74923;HTU21D;64715;44.760;37.678;2022-12-18T02:06:40;10.41;84.73
74923;HTU21D;64715;44.760;37.678;2022-12-18T02:10:20;10.46;84.58
74923;HTU21D;64715;44.760;37.678;2022-12-18T02:11:42;10.45;84.47
74923;HTU21D;64715;44.760;37.678;2022-12-18T02:13:19;10.50;84.74
74923;HTU21D;64715;44.760;37.678;2022-12-18T02:14:38;10.50;84.55
74923;HTU21D;64715;44.760;37.678;2022-12-18T02:17:15;10.49;84.45
74923;HTU21D;64715;44.760;37.678;2022-12-18T02:18:25;10.50;84.57
74923;HTU21D;64715;44.760;37.678;2022-12-18T02:20:48;10.52;84.82
74923;HTU21D;64715;44.760;37.678;2022-12-18T02:27:18;10.65;85.25
74923;HTU21D;64715;44.760;37.678;2022-12-18T02:28:23;10.67;85.27
74923;HTU21D;64715;44.760;37.678;2022-12-18T02:29:40;10.69;85.03
74923;HTU21D;64715;44.760;37.678;2022-12-18T02:30:47;10.69;84.91
74923;HTU21D;64715;44.760;37.678;2022-12-18T02:31:53;10.70;84.74
74923;HTU21D;64715;44.760;37.678;2022-12-18T02:32:56;10.71;84.84
74923;HTU21D;64715;44.760;37.678;2022-12-18T02:34:02;10.72;85.06
74923;HTU21D;64715;44.760;37.678;2022-12-18T02:35:08;10.72;84.64
74923;HTU21D;64715;44.760;37.678;2022-12-18T02:36:12;10.73;84.88
74923;HTU21D;64715;44.760;37.678;2022-12-18T02:37:18;10.74;84.71
74923;HTU21D;64715;44.760;37.678;2022-12-18T02:38:19;10.75;84.90
74923;HTU21D;64715;44.760;37.678;2022-12-18T02:39:25;10.75;84.61
74923;HTU21D;64715;44.760;37.678;2022-12-18T02:40:38;10.78;84.64
74923;HTU21D;64715;44.760;37.678;2022-12-18T02:41:40;10.79;84.81
74923;HTU21D;64715;44.760;37.678;2022-12-18T02:42:42;10.80;84.71
74923;HTU21D;64715;44.760;37.678;2022-12-18T02:43:48;10.82;84.75
74923;HTU21D;64715;44.760;37.678;2022-12-18T02:44:51;10.83;84.65
74923;HTU21D;64715;44.760;37.678;2022-12-18T02:46:00;10.87;84.95
74923;HTU21D;64715;44.760;37.678;2022-12-18T02:47:04;10.88;84.69
74923;HTU21D;64715;44.760;37.678;2022-12-18T02:48:05;10.90;84.62
74923;HTU21D;64715;44.760;37.678;2022-12-18T02:49:36;10.93;84.46
74923;HTU21D;64715;44.760;37.678;2022-12-18T02:50:44;10.96;84.35
74923;HTU21D;64715;44.760;37.678;2022-12-18T02:53:26;10.93;84.45
74923;HTU21D;64715;44.760;37.678;2022-12-18T02:56:23;10.90;84.45
74923;HTU21D;64715;44.760;37.678;2022-12-18T02:59:02;10.84;83.94
74923;HTU21D;64715;44.760;37.678;2022-12-18T03:01:22;10.80;84.10
74923;HTU21D;64715;44.760;37.678;2022-12-18T03:02:39;10.74;84.16
74923;HTU21D;64715;44.760;37.678;2022-12-18T03:03:58;10.72;84.13
74923;HTU21D;64715;44.760;37.678;2022-12-18T03:05:16;10.71;83.89
74923;HTU21D;64715;44.760;37.678;2022-12-18T03:06:42;10.69;84.08
74923;HTU21D;64715;44.760;37.678;2022-12-18T03:09:33;10.58;84.26
74923;HTU21D;64715;44.760;37.678;2022-12-18T03:10:41;10.55;84.26
74923;HTU21D;64715;44.760;37.678;2022-12-18T03:11:47;10.55;84.17
74923;HTU21D;64715;44.760;37.678;2022-12-18T03:13:13;10.50;84.16
74923;HTU21D;64715;44.760;37.678;2022-12-18T03:14:16;10.49;84.53
74923;HTU21D;64715;44.760;37.678;2022-12-18T03:15:29;10.49;84.38
74923;HTU21D;64715;44.760;37.678;2022-12-18T03:16:41;10.44;84.39
74923;HTU21D;64715;44.760;37.678;2022-12-18T03:17:48;10.44;84.68
74923;HTU21D;64715;44.760;37.678;2022-12-18T03:18:55;10.45;84.60
74923;HTU21D;64715;44.760;37.678;2022-12-18T03:20:04;10.45;84.93
74923;HTU21D;64715;44.760;37.678;2022-12-18T03:21:09;10.48;84.88
74923;HTU21D;64715;44.760;37.678;2022-12-18T03:22:13;10.50;84.91
74923;HTU21D;64715;44.760;37.678;2022-12-18T03:23:24;10.51;85.15
74923;HTU21D;64715;44.760;37.678;2022-12-18T03:24:29;10.53;84.81
74923;HTU21D;64715;44.760;37.678;2022-12-18T03:25:33;10.53;84.98
74923;HTU21D;64715;44.760;37.678;2022-12-18T03:26:39;10.53;84.97
74923;HTU21D;64715;44.760;37.678;2022-12-18T03:27:47;10.57;85.11
74923;HTU21D;64715;44.760;37.678;2022-12-18T03:28:53;10.58;84.98
74923;HTU21D;64715;44.760;37.678;2022-12-18T03:30:07;10.58;85.21
74923;HTU21D;64715;44.760;37.678;2022-12-18T03:31:14;10.59;85.25
74923;HTU21D;64715;44.760;37.678;2022-12-18T03:32:23;10.59;85.26
74923;HTU21D;64715;44.760;37.678;2022-12-18T03:33:38;10.64;85.19
74923;HTU21D;64715;44.760;37.678;2022-12-18T03:34:43;10.62;85.06
74923;HTU21D;64715;44.760;37.678;2022-12-18T03:35:49;10.63;85.35
74923;HTU21D;64715;44.760;37.678;2022-12-18T03:36:52;10.63;85.17
74923;HTU21D;64715;44.760;37.678;2022-12-18T03:37:53;10.62;85.38
74923;HTU21D;64715;44.760;37.678;2022-12-18T03:38:54;10.64;84.99
74923;HTU21D;64715;44.760;37.678;2022-12-18T03:39:56;10.63;85.33
74923;HTU21D;64715;44.760;37.678;2022-12-18T03:42:49;10.62;85.52
74923;HTU21D;64715;44.760;37.678;2022-12-18T03:45:26;10.58;85.23
74923;HTU21D;64715;44.760;37.678;2022-12-18T03:46:54;10.57;85.55
74923;HTU21D;64715;44.760;37.678;2022-12-18T03:48:16;10.57;85.59
74923;HTU21D;64715;44.760;37.678;2022-12-18T03:49:27;10.54;85.45
74923;HTU21D;64715;44.760;37.678;2022-12-18T03:51:02;10.53;85.67
74923;HTU21D;64715;44.760;37.678;2022-12-18T03:52:10;10.51;85.84
74923;HTU21D;64715;44.760;37.678;2022-12-18T03:53:32;10.54;86.00
74923;HTU21D;64715;44.760;37.678;2022-12-18T03:54:37;10.53;86.25
74923;HTU21D;64715;44.760;37.678;2022-12-18T03:55:47;10.55;86.19
74923;HTU21D;64715;44.760;37.678;2022-12-18T03:56:57;10.55;86.48
74923;HTU21D;64715;44.760;37.678;2022-12-18T03:57:59;10.58;86.74
74923;HTU21D;64715;44.760;37.678;2022-12-18T03:59:12;10.62;86.93
74923;HTU21D;64715;44.760;37.678;2022-12-18T04:00:17;10.66;86.64
74923;HTU21D;64715;44.760;37.678;2022-12-18T04:01:42;10.71;87.05
74923;HTU21D;64715;44.760;37.678;2022-12-18T04:02:53;10.73;86.81
74923;HTU21D;64715;44.760;37.678;2022-12-18T04:04:05;10.75;87.14
74923;HTU21D;64715;44.760;37.678;2022-12-18T04:05:10;10.80;87.03
74923;HTU21D;64715;44.760;37.678;2022-12-18T04:06:16;10.81;87.16
74923;HTU21D;64715;44.760;37.678;2022-12-18T04:07:19;10.82;86.67
74923;HTU21D;64715;44.760;37.678;2022-12-18T04:08:23;10.85;87.06
74923;HTU21D;64715;44.760;37.678;2022-12-18T04:09:36;10.86;87.02
74923;HTU21D;64715;44.760;37.678;2022-12-18T04:10:40;10.88;86.90
74923;HTU21D;64715;44.760;37.678;2022-12-18T04:11:41;10.89;86.83
74923;HTU21D;64715;44.760;37.678;2022-12-18T04:12:45;10.89;86.78
74923;HTU21D;64715;44.760;37.678;2022-12-18T04:13:48;10.92;87.08
74923;HTU21D;64715;44.760;37.678;2022-12-18T04:14:56;10.92;86.99
74923;HTU21D;64715;44.760;37.678;2022-12-18T04:15:57;10.92;86.92
74923;HTU21D;64715;44.760;37.678;2022-12-18T04:16:59;10.95;86.96
74923;HTU21D;64715;44.760;37.678;2022-12-18T04:18:05;10.96;86.95
74923;HTU21D;64715;44.760;37.678;2022-12-18T04:19:13;10.97;86.96
74923;HTU21D;64715;44.760;37.678;2022-12-18T04:20:17;10.97;86.98
74923;HTU21D;64715;44.760;37.678;2022-12-18T04:21:19;10.97;86.97
74923;HTU21D;64715;44.760;37.678;2022-12-18T04:22:22;10.98;87.20
74923;HTU21D;64715;44.760;37.678;2022-12-18T04:23:28;11.02;87.22
74923;HTU21D;64715;44.760;37.678;2022-12-18T04:24:32;11.02;87.08
74923;HTU21D;64715;44.760;37.678;2022-12-18T04:25:43;11.03;87.35
74923;HTU21D;64715;44.760;37.678;2022-12-18T04:26:49;11.05;87.40
74923;HTU21D;64715;44.760;37.678;2022-12-18T04:27:58;11.10;87.60
74923;HTU21D;64715;44.760;37.678;2022-12-18T04:28:59;11.11;87.48
74923;HTU21D;64715;44.760;37.678;2022-12-18T04:30:02;11.14;87.25
74923;HTU21D;64715;44.760;37.678;2022-12-18T04:31:04;11.16;87.49
74923;HTU21D;64715;44.760;37.678;2022-12-18T04:32:07;11.17;87.39
74923;HTU21D;64715;44.760;37.678;2022-12-18T04:33:11;11.23;87.32
74923;HTU21D;64715;44.760;37.678;2022-12-18T04:34:12;11.25;87.38
74923;HTU21D;64715;44.760;37.678;2022-12-18T04:35:22;11.25;87.44
74923;HTU21D;64715;44.760;37.678;2022-12-18T04:36:26;11.27;87.22
74923;HTU21D;64715;44.760;37.678;2022-12-18T04:37:28;11.28;87.25
74923;HTU21D;64715;44.760;37.678;2022-12-18T04:38:29;11.29;87.25
74923;HTU21D;64715;44.760;37.678;2022-12-18T04:39:37;11.31;87.38
74923;HTU21D;64715;44.760;37.678;2022-12-18T04:40:45;11.32;86.91
74923;HTU21D;64715;44.760;37.678;2022-12-18T04:41:54;11.32;87.39
74923;HTU21D;64715;44.760;37.678;2022-12-18T04:42:55;11.33;86.99
74923;HTU21D;64715;44.760;37.678;2022-12-18T04:43:56;11.34;87.01
74923;HTU21D;64715;44.760;37.678;2022-12-18T04:44:57;11.36;86.95
74923;HTU21D;64715;44.760;37.678;2022-12-18T04:46:06;11.37;86.92
74923;HTU21D;64715;44.760;37.678;2022-12-18T04:47:07;11.39;87.04
74923;HTU21D;64715;44.760;37.678;2022-12-18T04:48:08;11.38;86.80
74923;HTU21D;64715;44.760;37.678;2022-12-18T04:49:09;11.39;86.90
74923;HTU21D;64715;44.760;37.678;2022-12-18T04:50:14;11.40;86.63
74923;HTU21D;64715;44.760;37.678;2022-12-18T04:51:15;11.41;86.64
74923;HTU21D;64715;44.760;37.678;2022-12-18T04:52:16;11.43;86.68
74923;HTU21D;64715;44.760;37.678;2022-12-18T04:53:17;11.43;86.29
74923;HTU21D;64715;44.760;37.678;2022-12-18T04:54:18;11.47;86.38
74923;HTU21D;64715;44.760;37.678;2022-12-18T04:55:19;11.51;86.58
74923;HTU21D;64715;44.760;37.678;2022-12-18T04:56:21;11.51;86.64
74923;HTU21D;64715;44.760;37.678;2022-12-18T04:57:22;11.54;85.95
74923;HTU21D;64715;44.760;37.678;2022-12-18T04:58:23;11.56;86.24
74923;HTU21D;64715;44.760;37.678;2022-12-18T04:59:24;11.56;86.10
74923;HTU21D;64715;44.760;37.678;2022-12-18T05:00:25;11.57;86.00
74923;HTU21D;64715;44.760;37.678;2022-12-18T05:01:26;11.59;85.71
74923;HTU21D;64715;44.760;37.678;2022-12-18T05:02:27;11.58;85.69
74923;HTU21D;64715;44.760;37.678;2022-12-18T05:03:29;11.58;85.67
74923;HTU21D;64715;44.760;37.678;2022-12-18T05:04:30;11.59;85.70
74923;HTU21D;64715;44.760;37.678;2022-12-18T05:05:31;11.61;85.60
74923;HTU21D;64715;44.760;37.678;2022-12-18T05:06:32;11.63;85.38
74923;HTU21D;64715;44.760;37.678;2022-12-18T05:07:33;11.64;85.55
74923;HTU21D;64715;44.760;37.678;2022-12-18T05:08:35;11.70;85.36
74923;HTU21D;64715;44.760;37.678;2022-12-18T05:09:37;11.72;85.16
74923;HTU21D;64715;44.760;37.678;2022-12-18T05:10:38;11.75;85.23
74923;HTU21D;64715;44.760;37.678;2022-12-18T05:11:39;11.75;85.23
74923;HTU21D;64715;44.760;37.678;2022-12-18T05:12:40;11.78;85.03
74923;HTU21D;64715;44.760;37.678;2022-12-18T05:13:58;11.81;84.94
74923;HTU21D;64715;44.760;37.678;2022-12-18T05:14:59;11.82;84.91
74923;HTU21D;64715;44.760;37.678;2022-12-18T05:16:00;11.85;84.91
74923;HTU21D;64715;44.760;37.678;2022-12-18T05:17:01;11.86;85.29
74923;HTU21D;64715;44.760;37.678;2022-12-18T05:18:03;11.92;85.06
74923;HTU21D;64715;44.760;37.678;2022-12-18T05:19:05;11.92;84.68
74923;HTU21D;64715;44.760;37.678;2022-12-18T05:20:06;11.97;84.77
74923;HTU21D;64715;44.760;37.678;2022-12-18T05:21:07;12.01;85.19
74923;HTU21D;64715;44.760;37.678;2022-12-18T05:22:09;12.05;84.95
74923;HTU21D;64715;44.760;37.678;2022-12-18T05:23:10;12.11;84.98
74923;HTU21D;64715;44.760;37.678;2022-12-18T05:24:11;12.16;84.93
74923;HTU21D;64715;44.760;37.678;2022-12-18T05:25:12;12.20;84.81
74923;HTU21D;64715;44.760;37.678;2022-12-18T05:26:16;12.26;84.25
74923;HTU21D;64715;44.760;37.678;2022-12-18T05:27:17;12.30;84.45
74923;HTU21D;64715;44.760;37.678;2022-12-18T05:28:20;12.32;84.57
74923;HTU21D;64715;44.760;37.678;2022-12-18T05:29:21;12.35;84.38
74923;HTU21D;64715;44.760;37.678;2022-12-18T05:30:22;12.37;84.40
74923;HTU21D;64715;44.760;37.678;2022-12-18T05:31:23;12.40;84.21
74923;HTU21D;64715;44.760;37.678;2022-12-18T05:32:24;12.43;84.05
74923;HTU21D;64715;44.760;37.678;2022-12-18T05:33:28;12.45;84.08
74923;HTU21D;64715;44.760;37.678;2022-12-18T05:34:29;12.45;84.07
74923;HTU21D;64715;44.760;37.678;2022-12-18T05:35:31;12.49;83.95
74923;HTU21D;64715;44.760;37.678;2022-12-18T05:36:32;12.50;84.03
74923;HTU21D;64715;44.760;37.678;2022-12-18T05:37:33;12.53;83.86
74923;HTU21D;64715;44.760;37.678;2022-12-18T05:38:36;12.59;83.97
74923;HTU21D;64715;44.760;37.678;2022-12-18T05:39:38;12.63;83.84
74923;HTU21D;64715;44.760;37.678;2022-12-18T05:40:42;12.67;83.78
74923;HTU21D;64715;44.760;37.678;2022-12-18T05:41:43;12.69;83.61
74923;HTU21D;64715;44.760;37.678;2022-12-18T05:42:44;12.74;83.58
74923;HTU21D;64715;44.760;37.678;2022-12-18T05:43:45;12.77;83.36
74923;HTU21D;64715;44.760;37.678;2022-12-18T05:44:46;12.80;83.63
74923;HTU21D;64715;44.760;37.678;2022-12-18T05:45:48;12.85;83.55
74923;HTU21D;64715;44.760;37.678;2022-12-18T05:46:49;12.89;83.22
74923;HTU21D;64715;44.760;37.678;2022-12-18T05:47:51;12.93;83.39
74923;HTU21D;64715;44.760;37.678;2022-12-18T05:48:51;12.95;83.16
74923;HTU21D;64715;44.760;37.678;2022-12-18T05:49:52;13.02;83.21
74923;HTU21D;64715;44.760;37.678;2022-12-18T05:50:54;13.07;83.02
74923;HTU21D;64715;44.760;37.678;2022-12-18T05:51:55;13.10;83.00
74923;HTU21D;64715;44.760;37.678;2022-12-18T05:52:56;13.14;83.02
74923;HTU21D;64715;44.760;37.678;2022-12-18T05:53:57;13.18;83.04
74923;HTU21D;64715;44.760;37.678;2022-12-18T05:54:58;13.20;82.51
74923;HTU21D;64715;44.760;37.678;2022-12-18T05:56:01;13.20;82.46
74923;HTU21D;64715;44.760;37.678;2022-12-18T05:57:03;13.20;82.67
74923;HTU21D;64715;44.760;37.678;2022-12-18T05:58:05;13.20;82.63
74923;HTU21D;64715;44.760;37.678;2022-12-18T05:59:07;13.20;82.49
74923;HTU21D;64715;44.760;37.678;2022-12-18T06:00:08;13.20;82.51
74923;HTU21D;64715;44.760;37.678;2022-12-18T06:01:18;13.23;82.71
74923;HTU21D;64715;44.760;37.678;2022-12-18T06:02:20;13.24;82.72
74923;HTU21D;64715;44.760;37.678;2022-12-18T06:03:21;13.27;82.79
74923;HTU21D;64715;44.760;37.678;2022-12-18T06:04:22;13.29;82.52
74923;HTU21D;64715;44.760;37.678;2022-12-18T06:05:23;13.30;82.89
74923;HTU21D;64715;44.760;37.678;2022-12-18T06:06:26;13.34;82.58
74923;HTU21D;64715;44.760;37.678;2022-12-18T06:07:28;13.38;82.81
74923;HTU21D;64715;44.760;37.678;2022-12-18T06:08:29;13.44;83.02
74923;HTU21D;64715;44.760;37.678;2022-12-18T06:09:30;13.53;83.10
74923;HTU21D;64715;44.760;37.678;2022-12-18T06:10:31;13.62;83.03
74923;HTU21D;64715;44.760;37.678;2022-12-18T06:11:32;13.74;83.04
74923;HTU21D;64715;44.760;37.678;2022-12-18T06:12:35;13.84;82.89
74923;HTU21D;64715;44.760;37.678;2022-12-18T06:13:37;13.94;82.59
74923;HTU21D;64715;44.760;37.678;2022-12-18T06:14:38;14.05;82.47
74923;HTU21D;64715;44.760;37.678;2022-12-18T06:15:40;14.12;82.35
74923;HTU21D;64715;44.760;37.678;2022-12-18T06:16:41;14.23;82.27
74923;HTU21D;64715;44.760;37.678;2022-12-18T06:17:42;14.34;82.01
74923;HTU21D;64715;44.760;37.678;2022-12-18T06:18:43;14.39;81.65
74923;HTU21D;64715;44.760;37.678;2022-12-18T06:19:44;14.44;81.60
74923;HTU21D;64715;44.760;37.678;2022-12-18T06:20:45;14.53;81.53
74923;HTU21D;64715;44.760;37.678;2022-12-18T06:21:46;14.60;81.37
74923;HTU21D;64715;44.760;37.678;2022-12-18T06:22:47;14.64;80.93
74923;HTU21D;64715;44.760;37.678;2022-12-18T06:23:48;14.67;80.49
74923;HTU21D;64715;44.760;37.678;2022-12-18T06:24:49;14.68;80.83
74923;HTU21D;64715;44.760;37.678;2022-12-18T06:25:51;14.69;80.19
74923;HTU21D;64715;44.760;37.678;2022-12-18T06:26:52;14.68;80.36
74923;HTU21D;64715;44.760;37.678;2022-12-18T06:27:53;14.69;80.40
74923;HTU21D;64715;44.760;37.678;2022-12-18T06:28:54;14.68;80.49
74923;HTU21D;64715;44.760;37.678;2022-12-18T06:29:55;14.65;80.35
74923;HTU21D;64715;44.760;37.678;2022-12-18T06:30:56;14.65;80.12
74923;HTU21D;64715;44.760;37.678;2022-12-18T06:31:57;14.66;80.16
74923;HTU21D;64715;44.760;37.678;2022-12-18T06:32:58;14.67;80.45
74923;HTU21D;64715;44.760;37.678;2022-12-18T06:34:02;14.72;80.40
74923;HTU21D;64715;44.760;37.678;2022-12-18T06:35:04;14.77;80.52
74923;HTU21D;64715;44.760;37.678;2022-12-18T06:36:07;14.77;80.35
74923;HTU21D;64715;44.760;37.678;2022-12-18T06:37:10;14.81;80.53
74923;HTU21D;64715;44.760;37.678;2022-12-18T06:38:11;14.84;80.33
74923;HTU21D;64715;44.760;37.678;2022-12-18T06:39:12;14.86;80.35
74923;HTU21D;64715;44.760;37.678;2022-12-18T06:40:14;14.89;79.81
74923;HTU21D;64715;44.760;37.678;2022-12-18T06:41:19;14.89;79.92
74923;HTU21D;64715;44.760;37.678;2022-12-18T06:42:20;14.88;79.74
74923;HTU21D;64715;44.760;37.678;2022-12-18T06:43:23;14.89;79.88
74923;HTU21D;64715;44.760;37.678;2022-12-18T06:44:24;14.89;80.04
74923;HTU21D;64715;44.760;37.678;2022-12-18T06:45:25;14.95;80.01
74923;HTU21D;64715;44.760;37.678;2022-12-18T06:46:27;15.00;79.94
74923;HTU21D;64715;44.760;37.678;2022-12-18T06:47:28;15.08;79.82
74923;HTU21D;64715;44.760;37.678;2022-12-18T06:48:29;15.15;79.90
74923;HTU21D;64715;44.760;37.678;2022-12-18T06:49:31;15.22;79.79
74923;HTU21D;64715;44.760;37.678;2022-12-18T06:50:32;15.28;79.83
74923;HTU21D;64715;44.760;37.678;2022-12-18T06:51:33;15.38;79.44
74923;HTU21D;64715;44.760;37.678;2022-12-18T06:52:34;15.42;79.44
74923;HTU21D;64715;44.760;37.678;2022-12-18T06:53:35;15.47;79.15
74923;HTU21D;64715;44.760;37.678;2022-12-18T06:54:37;15.52;78.87
74923;HTU21D;64715;44.760;37.678;2022-12-18T06:55:39;15.55;78.40
74923;HTU21D;64715;44.760;37.678;2022-12-18T06:56:41;15.55;78.59
74923;HTU21D;64715;44.760;37.678;2022-12-18T06:57:42;15.56;78.47
74923;HTU21D;64715;44.760;37.678;2022-12-18T06:58:44;15.57;78.61